createdAt,value
2018-09-13T15:41:52.121Z,7.53
2018-09-13T15:44:20.624Z,8.00
2018-09-13T15:46:49.057Z,8.40
2018-09-13T15:49:17.470Z,8.87
2018-09-13T15:51:45.945Z,8.20
2018-09-13T15:54:14.356Z,8.27
2018-09-13T15:56:42.806Z,8.47
2018-09-13T15:59:11.264Z,9.10
2018-09-13T16:01:39.757Z,8.80
2018-09-13T16:04:08.169Z,7.67
2018-09-13T16:06:36.625Z,8.83
2018-09-13T16:09:07.612Z,9.40
2018-09-13T16:11:36.045Z,8.60
2018-09-13T16:14:04.517Z,7.93
2018-09-13T16:16:33.257Z,16.10
2018-09-13T16:19:01.889Z,10.50
2018-09-13T16:21:30.353Z,8.60
2018-09-13T16:23:58.913Z,11.50
2018-09-13T16:26:27.746Z,11.63
2018-09-13T16:28:56.249Z,11.77
2018-09-13T16:31:25.804Z,9.30
2018-09-13T16:33:54.472Z,8.23
2018-09-13T16:36:24.581Z,8.77
2018-09-13T16:38:58.508Z,10.20
2018-09-13T16:41:33.623Z,9.83
2018-09-13T16:44:04.764Z,17.03
2018-09-13T16:46:38.756Z,8.20
2018-09-13T16:49:07.557Z,9.07
2018-09-13T16:51:36.621Z,10.90
2018-09-13T16:54:05.180Z,9.00
2018-09-13T16:56:33.685Z,9.00
2018-09-13T16:59:02.217Z,8.63
2018-09-13T17:01:30.765Z,11.17
2018-09-13T17:03:59.260Z,9.37
2018-09-13T17:06:27.713Z,11.43
2018-09-13T17:08:56.229Z,11.80
2018-09-13T17:11:24.634Z,9.90
2018-09-13T17:13:53.197Z,8.43
2018-09-13T17:16:21.675Z,9.10
2018-09-13T17:18:50.220Z,8.93
2018-09-13T17:21:18.645Z,8.80
2018-09-13T19:39:14.150Z,13.10
2018-09-13T19:44:11.572Z,12.20
2018-09-13T19:46:40.025Z,13.03
2018-09-13T19:49:08.501Z,13.47
2018-09-13T19:51:37.865Z,12.80
2018-09-13T19:54:06.298Z,13.60
2018-09-13T19:56:35.064Z,12.93
2018-09-13T19:59:03.557Z,14.40
2018-09-13T20:01:32.001Z,14.20
2018-09-13T20:04:00.477Z,15.00
2018-09-13T20:06:29.062Z,14.50
2018-09-13T20:08:57.616Z,14.90
2018-09-13T20:11:26.177Z,16.17
2018-09-13T20:13:55.137Z,14.70
2018-09-13T20:16:23.625Z,14.03
2018-09-13T20:18:52.093Z,14.00
2018-09-13T20:21:20.538Z,13.97
2018-09-13T20:23:49.013Z,12.60
2018-09-13T20:26:17.461Z,13.93
2018-09-13T20:28:45.951Z,14.33
2018-09-13T20:31:14.505Z,12.90
2018-09-13T20:35:12.418Z,14.63
2018-09-13T20:37:40.905Z,12.50
2018-09-13T20:40:09.470Z,13.30
2018-09-13T20:42:37.969Z,12.70
2018-09-13T20:45:06.743Z,12.83
2018-09-13T20:47:35.293Z,12.07
2018-09-13T20:50:03.801Z,11.30
2018-09-13T20:52:32.393Z,13.30
2018-09-13T20:55:00.916Z,11.47
2018-09-13T20:57:29.425Z,10.87
2018-09-13T20:59:58.017Z,10.87
2018-09-13T21:02:26.508Z,10.87
2018-09-13T21:04:55.001Z,10.43
2018-09-13T21:07:23.461Z,10.50
2018-09-13T21:09:52.073Z,11.30
2018-09-13T21:12:20.556Z,9.53
2018-09-13T21:14:50.087Z,9.30
2018-09-13T21:17:18.630Z,9.63
2018-09-13T21:19:47.337Z,9.57
2018-09-13T21:22:15.804Z,9.70
2018-09-13T21:24:44.276Z,9.63
2018-09-13T21:27:12.764Z,9.60
2018-09-13T21:29:41.255Z,10.30
2018-09-13T21:32:09.687Z,9.47
2018-09-13T21:34:38.321Z,11.10
2018-09-13T21:37:06.809Z,10.00
2018-09-13T21:39:35.264Z,9.50
2018-09-13T21:42:03.769Z,9.63
2018-09-13T21:44:32.273Z,9.43
2018-09-13T21:47:00.676Z,9.60
2018-09-13T21:49:29.193Z,9.50
2018-09-13T21:51:57.648Z,9.20
2018-09-13T21:54:26.180Z,9.10
2018-09-13T21:56:54.617Z,9.20
2018-09-13T21:59:23.138Z,10.07
2018-09-13T22:01:51.626Z,9.53
2018-09-13T22:04:20.162Z,10.37
2018-09-13T22:06:48.909Z,9.83
2018-09-13T22:09:17.482Z,10.33
2018-09-13T22:11:46.385Z,9.90
2018-09-13T22:14:14.946Z,10.63
2018-09-13T22:16:43.413Z,11.27
2018-09-13T22:19:12.016Z,10.20
2018-09-13T22:21:40.441Z,10.17
2018-09-13T22:24:08.937Z,10.17
2018-09-13T22:26:37.449Z,10.77
2018-09-13T22:29:06.461Z,10.53
2018-09-13T22:31:35.633Z,10.70
2018-09-13T22:34:06.681Z,10.57
2018-09-13T22:36:35.974Z,11.53
2018-09-13T22:39:08.781Z,10.90
2018-09-13T22:41:38.143Z,10.63
2018-09-13T22:44:06.653Z,10.30
2018-09-13T22:46:35.103Z,11.50
2018-09-13T22:49:03.745Z,10.87
2018-09-13T22:51:32.293Z,11.07
2018-09-13T22:54:00.773Z,11.20
2018-09-13T22:56:29.217Z,10.53
2018-09-13T22:58:57.721Z,11.13
2018-09-13T23:01:26.241Z,10.60
2018-09-13T23:03:54.805Z,10.83
2018-09-13T23:06:23.296Z,10.47
2018-09-13T23:08:51.729Z,11.20
2018-09-13T23:11:20.225Z,10.30
2018-09-13T23:13:48.844Z,10.63
2018-09-13T23:16:17.375Z,10.93
2018-09-13T23:18:45.938Z,11.10
2018-09-13T23:21:14.453Z,11.27
2018-09-13T23:23:43.194Z,11.17
2018-09-13T23:26:11.718Z,11.80
2018-09-13T23:28:40.197Z,11.93
2018-09-13T23:31:08.745Z,10.73
2018-09-13T23:33:37.290Z,11.13
2018-09-13T23:36:05.801Z,11.17
2018-09-13T23:38:34.328Z,11.13
2018-09-13T23:41:02.855Z,11.23
2018-09-13T23:43:31.325Z,10.20
2018-09-13T23:45:59.773Z,9.97
2018-09-13T23:48:28.417Z,9.93
2018-09-13T23:50:56.937Z,9.87
2018-09-13T23:53:25.145Z,10.63
2018-09-13T23:55:53.622Z,10.10
2018-09-13T23:58:22.065Z,9.73
